Time;durP1;ratioP1;P1;durP2;ratioP2;P2;SDS_P1;SDS_P2;PMS_P1;PMS_P2;Temp;Humidity;BMP_temperature;BMP_pressure;BME280_temperature;BME280_humidity;BME280_pressure;Samples;Min_cycle;Max_cycle;Signal;HPM_P1;HPM_P2
2024/01/03 00:00:58;;;;;;;1.83;1.40;;;9.00;99.90;;;;;;5020707;28;20490;-62
2024/01/03 00:03:27;;;;;;;2.20;1.80;;;9.10;99.90;;;;;;5022493;28;20488;-63
2024/01/03 00:05:56;;;;;;;1.77;1.43;;;9.10;99.90;;;;;;5016728;28;20475;-62
2024/01/03 00:08:27;;;;;;;2.37;1.90;;;9.20;99.90;;;;;;5022691;28;20491;-63
2024/01/03 00:10:57;;;;;;;2.03;1.40;;;9.30;99.90;;;;;;5024221;28;20487;-63
2024/01/03 00:14:05;;;;;;;3.17;1.20;;;9.30;99.90;;;;;;5019272;28;21003;-63
2024/01/03 00:16:34;;;;;;;1.50;1.40;;;9.40;99.90;;;;;;5023548;28;20463;-62
2024/01/03 00:19:03;;;;;;;1.90;1.60;;;9.40;99.90;;;;;;5022270;28;20597;-62
2024/01/03 00:21:34;;;;;;;1.50;1.33;;;9.40;99.90;;;;;;5020223;28;20495;-63
2024/01/03 00:24:07;;;;;;;2.80;1.70;;;9.40;99.90;;;;;;5020292;28;20514;-63
2024/01/03 00:26:36;;;;;;;2.70;1.10;;;9.50;99.90;;;;;;5025703;28;20471;-63
2024/01/03 00:29:05;;;;;;;1.70;1.40;;;9.50;99.90;;;;;;5024300;28;21031;-63
2024/01/03 00:31:38;;;;;;;2.90;1.57;;;9.40;99.90;;;;;;5024841;28;20491;-63
2024/01/03 00:34:25;;;;;;;2.17;1.23;;;9.50;99.90;;;;;;5023851;28;20473;-62
2024/01/03 00:36:56;;;;;;;1.33;1.23;;;9.50;99.90;;;;;;5021408;28;20479;-62
2024/01/03 00:39:26;;;;;;;3.07;1.43;;;9.50;99.90;;;;;;5024966;28;20562;-63
2024/01/03 00:41:54;;;;;;;3.27;1.60;;;9.60;99.90;;;;;;5022334;28;20490;-63
2024/01/03 00:44:23;;;;;;;5.70;1.90;;;9.60;99.90;;;;;;5019843;28;20486;-63
2024/01/03 00:46:52;;;;;;;3.73;1.20;;;9.60;99.90;;;;;;5023996;28;20476;-63
2024/01/03 00:49:20;;;;;;;2.93;1.40;;;9.60;99.90;;;;;;5024790;28;20527;-63
2024/01/03 00:51:49;;;;;;;2.87;1.57;;;9.70;99.90;;;;;;5021575;28;20503;-63
2024/01/03 00:54:21;;;;;;;2.17;1.60;;;9.70;99.90;;;;;;5026403;28;20550;-62
2024/01/03 00:56:50;;;;;;;2.20;1.33;;;9.70;99.90;;;;;;5021287;28;20471;-63
2024/01/03 00:59:18;;;;;;;1.53;1.20;;;9.80;99.90;;;;;;5026313;28;20460;-63
2024/01/03 01:01:47;;;;;;;3.33;1.40;;;9.80;99.90;;;;;;5026144;28;20482;-63
2024/01/03 01:04:16;;;;;;;2.00;1.13;;;9.80;99.90;;;;;;5024330;28;21014;-62
2024/01/03 01:06:45;;;;;;;3.37;1.90;;;9.80;99.90;;;;;;5024922;28;20876;-63
2024/01/03 01:09:13;;;;;;;4.10;1.40;;;9.80;99.90;;;;;;5025497;28;20488;-63
2024/01/03 01:11:42;;;;;;;2.90;1.47;;;9.80;99.90;;;;;;5021194;28;20574;-63
2024/01/03 01:14:10;;;;;;;3.53;1.40;;;9.80;99.90;;;;;;5017299;28;21007;-63
2024/01/03 01:16:38;;;;;;;1.53;1.33;;;9.80;99.90;;;;;;5020928;28;20502;-63
2024/01/03 01:19:07;;;;;;;3.00;1.27;;;9.80;99.90;;;;;;5023640;28;20546;-63
2024/01/03 01:21:35;;;;;;;2.20;1.10;;;9.80;99.90;;;;;;5021657;28;20501;-63
2024/01/03 01:24:04;;;;;;;4.50;1.47;;;9.80;99.90;;;;;;5026366;28;20545;-63
2024/01/03 01:26:32;;;;;;;1.50;1.30;;;9.90;99.90;;;;;;5025981;28;20499;-63
2024/01/03 01:29:02;;;;;;;1.67;1.30;;;9.90;99.90;;;;;;5023657;28;20565;-63
2024/01/03 01:31:30;;;;;;;3.00;1.13;;;9.90;99.90;;;;;;5017885;28;20562;-63
2024/01/03 01:33:58;;;;;;;4.20;1.33;;;9.90;99.90;;;;;;5023997;28;20550;-63
2024/01/03 01:36:26;;;;;;;2.00;1.30;;;9.90;99.90;;;;;;5023923;28;20546;-63
2024/01/03 01:38:54;;;;;;;2.30;1.53;;;9.90;99.90;;;;;;5023871;28;20548;-63
2024/01/03 01:41:22;;;;;;;3.33;1.27;;;9.90;99.90;;;;;;5025276;28;20491;-63
2024/01/03 01:43:50;;;;;;;1.50;1.30;;;9.90;99.90;;;;;;5021216;28;20533;-62
2024/01/03 01:46:19;;;;;;;2.70;1.20;;;9.90;99.90;;;;;;5025619;28;20890;-62
2024/01/03 01:48:48;;;;;;;4.10;1.40;;;9.90;99.90;;;;;;5024289;28;20534;-63
2024/01/03 01:51:17;;;;;;;2.80;1.43;;;9.90;99.90;;;;;;5021240;28;20590;-63
2024/01/03 01:53:45;;;;;;;2.33;1.30;;;9.90;99.90;;;;;;5025301;28;20475;-63
2024/01/03 01:56:13;;;;;;;3.30;1.27;;;9.90;99.90;;;;;;5026791;28;20536;-63
2024/01/03 01:58:42;;;;;;;2.60;1.10;;;9.90;99.90;;;;;;5023198;28;21259;-62
2024/01/03 02:01:10;;;;;;;1.77;1.37;;;9.90;99.90;;;;;;5028209;28;20567;-63
2024/01/03 02:03:40;;;;;;;1.80;1.20;;;9.90;99.90;;;;;;5015254;28;20495;-62
2024/01/03 02:06:09;;;;;;;2.47;1.17;;;9.90;99.90;;;;;;5020728;28;20471;-63
2024/01/03 02:08:37;;;;;;;3.13;1.47;;;9.80;99.90;;;;;;5020036;28;20491;-63
2024/01/03 02:11:06;;;;;;;4.33;1.57;;;9.80;99.90;;;;;;5018088;28;20610;-63
2024/01/03 02:13:33;;;;;;;3.60;1.50;;;9.80;99.90;;;;;;5020273;28;20629;-63
2024/01/03 02:16:02;;;;;;;2.73;1.37;;;9.70;99.90;;;;;;5025386;28;20558;-62
2024/01/03 02:18:30;;;;;;;3.53;1.23;;;9.70;99.90;;;;;;5024451;28;21035;-63
2024/01/03 02:21:01;;;;;;;3.47;1.30;;;9.70;99.90;;;;;;5026844;28;20475;-63
2024/01/03 02:23:30;;;;;;;4.10;1.20;;;9.60;99.90;;;;;;5025158;28;20999;-63
2024/01/03 02:25:58;;;;;;;1.30;1.00;;;9.70;99.90;;;;;;5028290;28;20477;-62
2024/01/03 02:28:31;;;;;;;3.07;1.10;;;9.60;99.90;;;;;;5027265;28;20552;-63
2024/01/03 02:30:59;;;;;;;2.67;1.30;;;9.60;99.90;;;;;;5019278;28;20502;-63
2024/01/03 02:33:27;;;;;;;2.53;1.10;;;9.60;99.90;;;;;;5025707;28;20548;-63
2024/01/03 02:35:55;;;;;;;4.20;1.30;;;9.60;99.90;;;;;;5027199;28;20475;-63
2024/01/03 02:38:23;;;;;;;2.20;1.00;;;9.50;99.90;;;;;;5026333;28;20579;-62
2024/01/03 02:40:53;;;;;;;1.97;1.00;;;9.50;99.90;;;;;;5023173;28;21071;-62
2024/01/03 02:43:21;;;;;;;4.20;1.37;;;9.50;99.90;;;;;;5027502;28;20499;-62
2024/01/03 02:45:49;;;;;;;2.50;1.20;;;9.50;99.90;;;;;;5026291;28;20507;-63
2024/01/03 02:48:17;;;;;;;5.60;1.67;;;9.50;99.90;;;;;;5019288;28;20554;-63
2024/01/03 02:50:48;;;;;;;1.77;1.30;;;9.50;99.90;;;;;;5025598;28;20484;-63
2024/01/03 02:53:16;;;;;;;3.27;1.17;;;9.50;99.90;;;;;;5023417;28;20584;-63
2024/01/03 02:55:44;;;;;;;4.10;1.40;;;9.40;99.90;;;;;;5024885;28;20471;-63
2024/01/03 02:58:13;;;;;;;2.13;0.80;;;9.40;99.90;;;;;;5018958;28;20556;-63
2024/01/03 03:00:41;;;;;;;1.10;1.00;;;9.40;99.90;;;;;;5026603;28;20594;-63
2024/01/03 03:03:09;;;;;;;2.20;1.00;;;9.40;99.90;;;;;;5024666;28;20550;-63
2024/01/03 03:05:37;;;;;;;1.73;0.97;;;9.40;99.90;;;;;;5023781;28;20554;-63
2024/01/03 03:08:06;;;;;;;1.70;1.40;;;9.40;99.90;;;;;;5020690;28;20482;-63
2024/01/03 03:10:35;;;;;;;2.77;1.20;;;9.40;99.90;;;;;;5021391;28;20861;-63
2024/01/03 03:13:02;;;;;;;1.87;0.80;;;9.40;99.90;;;;;;5023581;28;20578;-63
2024/01/03 03:15:32;;;;;;;1.33;0.80;;;9.40;99.90;;;;;;5020598;28;20499;-63
2024/01/03 03:18:01;;;;;;;2.07;1.10;;;9.40;99.90;;;;;;5024490;28;20559;-63
2024/01/03 03:20:29;;;;;;;2.70;1.00;;;9.40;99.90;;;;;;5026098;28;21114;-63
2024/01/03 03:22:58;;;;;;;1.83;1.00;;;9.40;99.90;;;;;;5026479;28;20479;-63
2024/01/03 03:25:26;;;;;;;1.33;1.00;;;9.30;99.90;;;;;;5027194;28;20929;-63
2024/01/03 03:27:54;;;;;;;3.00;1.00;;;9.30;99.90;;;;;;5016857;28;20472;-63
2024/01/03 03:30:22;;;;;;;2.77;0.90;;;9.30;99.90;;;;;;5020867;28;20598;-63
2024/01/03 03:32:51;;;;;;;4.00;1.33;;;9.30;99.90;;;;;;5025640;28;20491;-62
2024/01/03 03:35:20;;;;;;;1.90;0.80;;;9.20;99.90;;;;;;5019451;28;21046;-62
2024/01/03 03:37:48;;;;;;;1.83;1.37;;;9.20;99.90;;;;;;5022801;28;20494;-63
2024/01/03 03:40:16;;;;;;;1.93;0.90;;;9.20;99.90;;;;;;5022215;28;21545;-63
2024/01/03 03:42:47;;;;;;;1.33;0.90;;;9.20;99.90;;;;;;5020229;28;20891;-63
2024/01/03 03:45:15;;;;;;;1.53;0.90;;;9.10;99.90;;;;;;5023392;28;20471;-62
2024/01/03 03:47:43;;;;;;;1.70;0.93;;;9.10;99.90;;;;;;5028613;28;20503;-63
2024/01/03 03:50:12;;;;;;;0.80;0.80;;;9.10;99.90;;;;;;5023169;28;20549;-63
2024/01/03 03:52:40;;;;;;;1.73;0.90;;;9.00;99.90;;;;;;5027464;28;20581;-63
2024/01/03 03:55:09;;;;;;;2.30;0.90;;;9.00;99.90;;;;;;5021100;28;20495;-63
2024/01/03 03:57:37;;;;;;;1.27;1.10;;;9.00;99.90;;;;;;5024056;28;20472;-63
2024/01/03 04:00:07;;;;;;;2.33;0.80;;;9.00;99.90;;;;;;5019590;28;21076;-63
2024/01/03 04:02:35;;;;;;;2.27;1.00;;;9.00;99.90;;;;;;5021518;28;20491;-63
2024/01/03 04:05:04;;;;;;;1.30;1.00;;;9.00;99.90;;;;;;5026547;28;20470;-63
2024/01/03 04:07:33;;;;;;;1.17;0.80;;;8.90;99.90;;;;;;5022972;28;20467;-63
2024/01/03 04:10:01;;;;;;;2.87;1.00;;;8.90;99.90;;;;;;5022332;28;20562;-63
2024/01/03 04:12:29;;;;;;;3.23;1.00;;;8.90;99.90;;;;;;5022150;28;20925;-63
2024/01/03 04:14:57;;;;;;;2.37;1.10;;;8.90;99.90;;;;;;5024517;28;20555;-63
2024/01/03 04:17:25;;;;;;;1.33;0.70;;;8.80;99.90;;;;;;5025884;28;20842;-63
2024/01/03 04:19:54;;;;;;;1.23;0.77;;;8.80;99.90;;;;;;5019618;28;20555;-63
2024/01/03 04:22:22;;;;;;;2.43;1.20;;;8.80;99.90;;;;;;5019087;28;20498;-63
2024/01/03 04:24:52;;;;;;;2.30;1.00;;;8.80;99.90;;;;;;5022670;28;20551;-63
2024/01/03 04:27:19;;;;;;;1.80;0.90;;;8.80;99.90;;;;;;5026047;28;20582;-63
2024/01/03 04:29:47;;;;;;;1.00;0.70;;;8.70;99.90;;;;;;5021284;28;20575;-63
2024/01/03 04:32:15;;;;;;;2.03;0.80;;;8.80;99.90;;;;;;5016732;28;21175;-63
2024/01/03 04:34:43;;;;;;;0.53;0.50;;;8.70;99.90;;;;;;5025638;28;20656;-63
2024/01/03 04:37:12;;;;;;;0.57;0.50;;;8.70;99.90;;;;;;5024400;28;20477;-63
2024/01/03 04:39:40;;;;;;;0.70;0.60;;;8.70;99.90;;;;;;5023335;28;20513;-63
2024/01/03 04:42:09;;;;;;;0.73;0.60;;;8.70;99.90;;;;;;5024525;28;20522;-62
2024/01/03 04:44:37;;;;;;;1.60;0.67;;;8.70;99.90;;;;;;5025771;28;20467;-63
2024/01/03 04:47:05;;;;;;;1.83;0.73;;;8.70;99.90;;;;;;5020374;28;20533;-62
2024/01/03 04:49:34;;;;;;;1.13;1.03;;;8.60;99.90;;;;;;5025423;28;20550;-63
2024/01/03 04:52:03;;;;;;;1.13;0.60;;;8.60;99.90;;;;;;5026420;28;20506;-63
2024/01/03 04:54:31;;;;;;;0.80;0.57;;;8.60;99.90;;;;;;5019421;28;20550;-63
2024/01/03 04:56:59;;;;;;;0.77;0.70;;;8.60;99.90;;;;;;5023721;28;20505;-63
2024/01/03 04:59:28;;;;;;;2.07;0.70;;;8.60;99.90;;;;;;5024066;28;21005;-63
2024/01/03 05:01:56;;;;;;;0.70;0.60;;;8.60;99.90;;;;;;5020028;28;20520;-63
2024/01/03 05:04:24;;;;;;;1.03;0.60;;;8.60;99.90;;;;;;5026270;28;20496;-62
2024/01/03 05:06:53;;;;;;;1.43;0.53;;;8.60;99.90;;;;;;5019319;28;20471;-63
2024/01/03 05:09:21;;;;;;;1.17;0.80;;;8.60;99.90;;;;;;5023396;28;20474;-63
2024/01/03 05:11:48;;;;;;;2.10;0.80;;;8.60;99.90;;;;;;5020867;28;20586;-63
2024/01/03 05:14:17;;;;;;;0.60;0.60;;;8.60;99.90;;;;;;5024025;28;20478;-63
2024/01/03 05:16:46;;;;;;;1.17;0.80;;;8.60;99.90;;;;;;5025899;28;20479;-62
2024/01/03 05:19:14;;;;;;;1.47;0.70;;;8.60;99.90;;;;;;5019744;28;20563;-63
2024/01/03 05:21:42;;;;;;;1.37;0.87;;;8.60;99.90;;;;;;5022668;28;20541;-63
2024/01/03 05:24:11;;;;;;;2.80;1.20;;;8.60;99.90;;;;;;5021610;28;21057;-63
2024/01/03 05:26:40;;;;;;;1.10;0.60;;;8.60;99.90;;;;;;5025761;28;20467;-63
2024/01/03 05:29:08;;;;;;;0.70;0.70;;;8.60;99.90;;;;;;5020659;28;20467;-63
2024/01/03 05:31:36;;;;;;;0.50;0.50;;;8.60;99.90;;;;;;5027500;28;20992;-63
2024/01/03 05:34:07;;;;;;;1.10;0.60;;;8.60;99.90;;;;;;5026280;28;21216;-64
2024/01/03 05:36:35;;;;;;;0.60;0.50;;;8.60;99.90;;;;;;5020204;28;20495;-63
2024/01/03 05:39:03;;;;;;;1.27;0.60;;;8.60;99.90;;;;;;5025727;28;21014;-63
2024/01/03 05:41:31;;;;;;;0.60;0.50;;;8.60;99.90;;;;;;5027471;28;20483;-63
2024/01/03 05:43:59;;;;;;;1.03;0.60;;;8.60;99.90;;;;;;5021932;28;20528;-62
2024/01/03 05:46:27;;;;;;;3.23;1.53;;;8.70;99.90;;;;;;5029902;28;21043;-63
2024/01/03 05:48:55;;;;;;;2.77;0.60;;;8.70;99.90;;;;;;5027456;28;20471;-63
2024/01/03 05:51:25;;;;;;;1.00;0.60;;;8.70;99.90;;;;;;5027102;28;20490;-63
2024/01/03 05:53:53;;;;;;;1.47;0.70;;;8.70;99.90;;;;;;5022447;28;20555;-63
2024/01/03 05:56:21;;;;;;;1.13;0.80;;;8.60;99.90;;;;;;5020237;28;20986;-63
2024/01/03 05:58:49;;;;;;;1.83;0.73;;;8.70;99.90;;;;;;5020730;28;20825;-62
2024/01/03 06:01:17;;;;;;;1.43;0.70;;;8.70;99.90;;;;;;5019724;28;20562;-62
2024/01/03 06:03:46;;;;;;;1.10;0.60;;;8.70;99.90;;;;;;5020758;28;20554;-63
2024/01/03 06:06:16;;;;;;;0.93;0.77;;;8.70;99.90;;;;;;5025239;28;20569;-61
2024/01/03 06:08:45;;;;;;;0.77;0.60;;;8.70;99.90;;;;;;5021609;28;20489;-63
2024/01/03 06:11:13;;;;;;;1.53;0.60;;;8.70;99.90;;;;;;5022483;28;20574;-63
2024/01/03 06:13:42;;;;;;;1.30;1.20;;;8.70;99.90;;;;;;5022273;28;20583;-63
2024/01/03 06:16:11;;;;;;;0.63;0.50;;;8.70;99.90;;;;;;5020454;28;20577;-63
2024/01/03 06:18:39;;;;;;;0.50;0.50;;;8.70;99.90;;;;;;5024719;28;20549;-63
2024/01/03 06:21:11;;;;;;;1.03;0.60;;;8.70;99.90;;;;;;5021318;28;20491;-63
2024/01/03 06:23:40;;;;;;;2.20;0.50;;;8.80;99.90;;;;;;5012713;28;20569;-63
2024/01/03 06:26:10;;;;;;;1.13;0.40;;;8.80;99.90;;;;;;4998667;28;20471;-63
2024/01/03 06:28:38;;;;;;;0.90;0.70;;;8.80;99.90;;;;;;5012141;28;20479;-63
2024/01/03 06:31:07;;;;;;;0.83;0.60;;;8.80;99.90;;;;;;5019970;28;20574;-61
2024/01/03 06:33:35;;;;;;;1.10;0.60;;;8.80;99.90;;;;;;5021958;28;20626;-62
2024/01/03 06:36:04;;;;;;;3.17;0.60;;;8.80;99.90;;;;;;5019948;28;20479;-62
2024/01/03 06:38:32;;;;;;;0.50;0.50;;;8.80;99.90;;;;;;5019310;28;20483;-62
2024/01/03 06:41:00;;;;;;;1.17;0.60;;;8.80;99.90;;;;;;5021880;28;20483;-62
2024/01/03 06:43:30;;;;;;;1.07;0.57;;;8.70;99.90;;;;;;5023835;28;21070;-62
2024/01/03 06:45:58;;;;;;;0.83;0.60;;;8.70;99.90;;;;;;5025458;28;21912;-63
2024/01/03 06:48:26;;;;;;;0.53;0.40;;;8.70;99.90;;;;;;5021893;28;20467;-62
2024/01/03 06:50:54;;;;;;;0.67;0.40;;;8.70;99.90;;;;;;5015467;28;21066;-63
2024/01/03 06:53:22;;;;;;;1.80;0.60;;;8.70;99.90;;;;;;5022985;28;22475;-63
2024/01/03 06:55:50;;;;;;;0.60;0.50;;;8.70;99.90;;;;;;5024652;28;20478;-61
2024/01/03 06:58:20;;;;;;;0.57;0.40;;;8.70;99.90;;;;;;5017291;28;20479;-62
2024/01/03 07:00:49;;;;;;;0.80;0.47;;;8.70;99.90;;;;;;5011923;28;20479;-63
2024/01/03 07:03:17;;;;;;;1.83;0.47;;;8.70;99.90;;;;;;5019830;28;20483;-62
2024/01/03 07:05:46;;;;;;;0.40;0.40;;;8.60;99.90;;;;;;5012061;28;20478;-62
2024/01/03 07:08:14;;;;;;;0.60;0.40;;;8.60;99.90;;;;;;5019469;28;20467;-63
2024/01/03 07:10:42;;;;;;;0.90;0.40;;;8.60;99.90;;;;;;5011976;28;21020;-62
2024/01/03 07:13:10;;;;;;;0.60;0.30;;;8.60;99.90;;;;;;5020310;28;22604;-61
2024/01/03 07:15:38;;;;;;;0.50;0.37;;;8.70;99.90;;;;;;5012576;28;20500;-62
2024/01/03 07:18:07;;;;;;;0.47;0.30;;;8.60;99.90;;;;;;5022866;28;20988;-62
2024/01/03 07:20:36;;;;;;;0.40;0.30;;;8.60;99.90;;;;;;5016201;28;20495;-61
2024/01/03 07:23:04;;;;;;;0.60;0.40;;;8.60;99.90;;;;;;5021149;28;20503;-63
2024/01/03 07:25:32;;;;;;;1.27;0.50;;;8.60;99.90;;;;;;5021318;28;20501;-63
2024/01/03 07:28:02;;;;;;;0.60;0.60;;;8.60;99.90;;;;;;5011787;28;20566;-62
2024/01/03 07:30:30;;;;;;;1.57;1.07;;;8.60;99.90;;;;;;5014172;28;20534;-60
2024/01/03 07:32:58;;;;;;;1.10;1.10;;;8.60;99.90;;;;;;5019509;28;20881;-61
2024/01/03 07:35:27;;;;;;;1.40;1.30;;;8.60;99.90;;;;;;5019811;28;20467;-61
2024/01/03 07:37:56;;;;;;;3.17;1.37;;;8.60;99.90;;;;;;5011252;28;21070;-62
2024/01/03 07:40:24;;;;;;;1.43;1.20;;;8.60;99.90;;;;;;5018789;28;20591;-61
2024/01/03 07:42:52;;;;;;;1.80;1.70;;;8.60;99.90;;;;;;5016777;28;20570;-62
2024/01/03 07:45:20;;;;;;;2.03;1.50;;;8.70;99.90;;;;;;5018700;28;20483;-62
2024/01/03 07:47:48;;;;;;;1.70;1.43;;;8.70;99.90;;;;;;5019757;28;20483;-62
2024/01/03 07:50:16;;;;;;;4.47;1.77;;;8.70;99.90;;;;;;5016596;28;20483;-62
2024/01/03 07:52:46;;;;;;;3.40;1.83;;;8.70;99.90;;;;;;5017922;28;20507;-62
2024/01/03 07:55:14;;;;;;;5.00;1.90;;;8.70;99.90;;;;;;5019713;28;20554;-62
2024/01/03 07:57:42;;;;;;;4.33;1.97;;;8.60;99.90;;;;;;5016735;28;20501;-61
2024/01/03 08:00:11;;;;;;;3.73;1.60;;;8.60;99.90;;;;;;5018621;28;20607;-62
2024/01/03 08:02:39;;;;;;;5.03;1.90;;;8.60;99.90;;;;;;5021973;28;20565;-64
2024/01/03 08:05:08;;;;;;;5.20;1.90;;;8.60;99.90;;;;;;5018197;28;20908;-62
2024/01/03 08:07:36;;;;;;;3.97;1.70;;;8.60;99.90;;;;;;5023614;28;20964;-64
2024/01/03 08:10:06;;;;;;;2.60;1.43;;;8.60;99.90;;;;;;5024331;28;21099;-64
2024/01/03 08:12:35;;;;;;;4.50;1.50;;;8.60;99.90;;;;;;5023350;28;20560;-63
2024/01/03 08:15:03;;;;;;;4.00;1.73;;;8.60;99.90;;;;;;5018995;28;20551;-63
2024/01/03 08:17:31;;;;;;;4.63;1.60;;;8.70;99.90;;;;;;5018770;28;20498;-64
2024/01/03 08:19:59;;;;;;;3.40;1.50;;;8.70;99.90;;;;;;5011941;28;20571;-64
2024/01/03 08:22:27;;;;;;;4.97;1.60;;;8.70;99.90;;;;;;5017364;28;20521;-64
2024/01/03 08:24:55;;;;;;;5.60;2.10;;;8.70;99.90;;;;;;5020532;28;20558;-63
2024/01/03 08:27:25;;;;;;;4.53;1.50;;;8.70;99.90;;;;;;5018314;28;20590;-64
2024/01/03 08:29:53;;;;;;;5.33;1.80;;;8.80;99.90;;;;;;5009513;28;20490;-63
2024/01/03 08:32:25;;;;;;;3.27;1.63;;;8.80;99.90;;;;;;5018905;28;21254;-63
2024/01/03 08:34:53;;;;;;;4.53;1.83;;;8.80;99.90;;;;;;5016800;28;20728;-64
2024/01/03 08:37:22;;;;;;;6.77;2.03;;;8.80;99.90;;;;;;5019579;28;21031;-64
2024/01/03 08:39:51;;;;;;;3.80;1.53;;;8.90;99.90;;;;;;5018272;28;20533;-64
2024/01/03 08:42:19;;;;;;;5.60;2.07;;;8.90;99.90;;;;;;5017944;28;20811;-64
2024/01/03 08:44:48;;;;;;;4.30;1.70;;;8.90;99.90;;;;;;5018738;28;20494;-63
2024/01/03 08:47:16;;;;;;;5.20;1.50;;;8.90;99.90;;;;;;5021406;28;20476;-63
2024/01/03 08:49:45;;;;;;;5.67;1.90;;;9.00;99.90;;;;;;5018776;28;21040;-62
2024/01/03 08:52:14;;;;;;;5.77;2.60;;;9.00;99.90;;;;;;5019576;28;20495;-63
2024/01/03 08:54:42;;;;;;;5.53;2.17;;;9.00;99.90;;;;;;5018211;28;20463;-64
2024/01/03 08:57:10;;;;;;;2.20;1.80;;;9.00;99.90;;;;;;5021304;28;20471;-64
2024/01/03 08:59:38;;;;;;;3.80;1.90;;;9.10;99.90;;;;;;5018727;28;20788;-64
2024/01/03 09:02:08;;;;;;;5.70;1.80;;;9.10;99.90;;;;;;5018355;28;20494;-64
2024/01/03 09:04:36;;;;;;;4.43;1.63;;;9.10;99.90;;;;;;5025460;28;20486;-64
2024/01/03 09:07:04;;;;;;;6.20;1.90;;;9.10;99.90;;;;;;5019624;28;20575;-64
2024/01/03 09:09:32;;;;;;;4.50;1.60;;;9.10;99.90;;;;;;5021043;28;20474;-64
2024/01/03 09:12:00;;;;;;;4.77;1.77;;;9.10;99.90;;;;;;5020030;28;20590;-62
2024/01/03 09:14:28;;;;;;;6.63;2.00;;;9.10;99.90;;;;;;5025281;28;20479;-63
2024/01/03 09:16:56;;;;;;;5.77;1.50;;;9.20;99.90;;;;;;5024097;28;20467;-64
2024/01/03 09:19:25;;;;;;;3.90;1.60;;;9.20;99.90;;;;;;5028266;28;20552;-64
2024/01/03 09:21:55;;;;;;;6.20;1.50;;;9.20;99.90;;;;;;5022914;28;20486;-64
2024/01/03 09:24:23;;;;;;;2.47;1.43;;;9.20;99.90;;;;;;5022024;28;20463;-64
2024/01/03 09:26:51;;;;;;;3.03;1.50;;;9.20;99.90;;;;;;5027818;28;20471;-62
2024/01/03 09:29:19;;;;;;;3.40;1.70;;;9.20;99.90;;;;;;5024563;28;20471;-64
2024/01/03 09:31:47;;;;;;;4.07;1.43;;;9.20;99.90;;;;;;5015626;28;20594;-64
2024/01/03 09:34:15;;;;;;;3.23;1.67;;;9.30;99.90;;;;;;5023063;28;20585;-64
2024/01/03 09:36:44;;;;;;;3.20;1.90;;;9.30;99.90;;;;;;5027053;28;20479;-64
2024/01/03 09:39:13;;;;;;;3.07;1.30;;;9.30;99.90;;;;;;5020709;28;20480;-63
2024/01/03 09:41:41;;;;;;;7.63;2.00;;;9.30;99.90;;;;;;5024572;28;20922;-65
2024/01/03 09:44:09;;;;;;;2.27;1.00;;;9.30;99.90;;;;;;5024624;28;20982;-64
2024/01/03 09:46:37;;;;;;;3.77;1.73;;;9.40;99.90;;;;;;5024275;28;20475;-64
2024/01/03 09:49:05;;;;;;;1.83;1.20;;;9.40;99.90;;;;;;5021615;28;20473;-64
2024/01/03 09:51:34;;;;;;;1.77;1.07;;;9.40;99.90;;;;;;5016441;28;20494;-64
2024/01/03 09:54:07;;;;;;;3.23;1.70;;;9.40;99.90;;;;;;5023834;28;20493;-65
2024/01/03 09:56:38;;;;;;;1.80;1.40;;;9.50;99.90;;;;;;5011176;28;20991;-65
2024/01/03 09:59:08;;;;;;;1.77;1.13;;;9.50;99.90;;;;;;5016853;28;20482;-64
2024/01/03 10:01:37;;;;;;;3.10;1.20;;;9.50;99.90;;;;;;5012389;28;20489;-65
2024/01/03 10:04:05;;;;;;;4.40;1.13;;;9.50;99.90;;;;;;5025391;28;20469;-64
2024/01/03 10:06:50;;;;;;;5.20;1.30;;;9.50;99.90;;;;;;5024299;28;20497;-65
2024/01/03 10:09:20;;;;;;;4.50;1.20;;;9.50;99.90;;;;;;5022345;28;20578;-65
2024/01/03 10:11:51;;;;;;;4.10;1.30;;;9.50;99.90;;;;;;5014979;28;20532;-64
2024/01/03 10:14:21;;;;;;;4.77;1.80;;;9.50;99.90;;;;;;5021050;28;20494;-65
2024/01/03 10:16:49;;;;;;;5.00;1.57;;;9.50;99.90;;;;;;5014565;28;20972;-64
2024/01/03 10:19:18;;;;;;;6.47;1.90;;;9.60;99.90;;;;;;5025381;28;20490;-65
2024/01/03 10:21:48;;;;;;;6.20;1.83;;;9.60;99.90;;;;;;5024383;28;20483;-65
2024/01/03 10:24:17;;;;;;;5.73;2.10;;;9.60;99.90;;;;;;5021679;28;20468;-64
2024/01/03 10:26:46;;;;;;;7.70;2.23;;;9.70;99.90;;;;;;5014768;28;20511;-65
2024/01/03 10:29:16;;;;;;;6.40;2.10;;;9.70;99.90;;;;;;5023387;28;20533;-64
2024/01/03 10:31:45;;;;;;;4.13;1.97;;;9.70;99.90;;;;;;5013656;28;20587;-65
2024/01/03 10:34:16;;;;;;;5.70;2.00;;;9.70;99.90;;;;;;5021756;28;20514;-65
2024/01/03 10:36:45;;;;;;;5.73;1.53;;;9.70;99.90;;;;;;5012704;28;21012;-65
2024/01/03 10:39:17;;;;;;;2.00;1.33;;;9.70;99.90;;;;;;5020200;28;20476;-65
2024/01/03 10:41:48;;;;;;;3.73;1.67;;;9.70;99.90;;;;;;5023769;28;20794;-65
2024/01/03 10:44:17;;;;;;;5.70;1.80;;;9.70;99.90;;;;;;5019130;28;20475;-65
2024/01/03 10:46:47;;;;;;;4.07;1.57;;;9.70;99.90;;;;;;5013433;28;21184;-65
2024/01/03 10:49:15;;;;;;;3.77;1.40;;;9.80;99.90;;;;;;5022515;28;20495;-65
2024/01/03 10:51:45;;;;;;;4.97;1.50;;;9.80;99.90;;;;;;5022919;28;20483;-65
2024/01/03 10:54:18;;;;;;;4.30;1.43;;;9.80;99.90;;;;;;5021587;28;20553;-65
2024/01/03 10:56:50;;;;;;;2.37;1.10;;;9.80;99.90;;;;;;5019975;28;20467;-65
2024/01/03 10:59:19;;;;;;;4.83;1.90;;;9.90;99.90;;;;;;5024236;28;20475;-65
2024/01/03 11:01:56;;;;;;;3.03;1.43;;;9.90;99.90;;;;;;5016927;28;20499;-65
2024/01/03 11:04:32;;;;;;;3.70;1.40;;;9.90;99.90;;;;;;5022816;28;20474;-65
2024/01/03 11:07:06;;;;;;;3.83;1.20;;;10.00;99.90;;;;;;5023949;28;20503;-65
2024/01/03 11:09:35;;;;;;;3.97;1.47;;;9.90;99.90;;;;;;5022109;28;20469;-65
2024/01/03 11:12:08;;;;;;;3.10;1.30;;;10.00;99.90;;;;;;5019893;28;20916;-65
2024/01/03 11:14:37;;;;;;;2.73;1.20;;;10.00;99.90;;;;;;5020342;28;20494;-65
2024/01/03 11:17:06;;;;;;;3.10;1.13;;;10.00;99.90;;;;;;5022727;28;20478;-65
2024/01/03 11:19:35;;;;;;;7.00;1.37;;;10.00;99.90;;;;;;5025400;28;20507;-66
2024/01/03 11:22:04;;;;;;;3.00;1.20;;;10.10;99.90;;;;;;5019733;28;20832;-65
2024/01/03 11:24:59;;;;;;;1.90;1.00;;;10.10;99.90;;;;;;5020922;28;21439;-67
2024/01/03 11:27:30;;;;;;;4.90;1.33;;;10.00;99.90;;;;;;5017993;28;20511;-69
2024/01/03 11:29:58;;;;;;;2.53;1.00;;;10.00;99.90;;;;;;5012217;28;21315;-64
2024/01/03 11:32:37;;;;;;;2.87;1.03;;;10.00;99.90;;;;;;5018083;28;20483;-65
2024/01/03 11:35:11;;;;;;;6.20;1.57;;;10.00;99.90;;;;;;5005189;28;20487;-64
2024/01/03 11:37:39;;;;;;;2.70;1.20;;;10.00;99.90;;;;;;5023935;28;20470;-65
2024/01/03 11:40:17;;;;;;;6.13;1.83;;;9.90;99.90;;;;;;5021524;28;20475;-64
2024/01/03 11:42:47;;;;;;;4.00;1.43;;;10.00;99.90;;;;;;5022604;28;21014;-65
2024/01/03 11:45:17;;;;;;;3.50;1.00;;;9.90;99.90;;;;;;5013127;28;20467;-64
2024/01/03 11:47:48;;;;;;;3.33;1.20;;;10.00;99.90;;;;;;5017923;28;20869;-65
2024/01/03 11:50:17;;;;;;;3.47;1.03;;;10.00;99.90;;;;;;5020499;28;21227;-65
2024/01/03 11:52:48;;;;;;;3.83;1.23;;;10.00;99.90;;;;;;5008202;28;20914;-64
2024/01/03 11:55:17;;;;;;;2.83;1.27;;;10.00;99.90;;;;;;5024661;28;20571;-65
2024/01/03 11:57:48;;;;;;;1.90;1.10;;;10.00;99.90;;;;;;5023165;28;20537;-65
2024/01/03 12:00:19;;;;;;;3.37;1.20;;;10.00;99.90;;;;;;5016219;28;20483;-65
2024/01/03 12:02:51;;;;;;;4.67;1.30;;;9.90;99.90;;;;;;5003966;28;20521;-64
2024/01/03 12:05:20;;;;;;;2.47;0.90;;;9.90;99.90;;;;;;5011489;28;20471;-64
2024/01/03 12:10:21;;;;;;;4.33;2.57;;;9.90;99.90;;;;;;4951894;28;20466;-69
2024/01/03 12:12:52;;;;;;;4.13;1.30;;;9.90;99.90;;;;;;4952311;28;20473;-69
2024/01/03 12:15:23;;;;;;;4.17;1.27;;;9.90;99.90;;;;;;4965291;28;21171;-69
2024/01/03 12:18:10;;;;;;;3.93;1.77;;;9.90;99.90;;;;;;4952037;28;20502;-69
2024/01/03 12:20:38;;;;;;;2.50;1.13;;;9.90;99.90;;;;;;4957597;28;20555;-70
2024/01/03 12:23:08;;;;;;;5.80;2.33;;;9.90;99.90;;;;;;4966589;28;20509;-70
2024/01/03 12:25:38;;;;;;;4.20;1.63;;;9.80;99.90;;;;;;4959858;28;20494;-70
2024/01/03 12:28:08;;;;;;;7.43;2.00;;;9.80;99.90;;;;;;4954975;28;20489;-69
2024/01/03 12:30:36;;;;;;;3.77;1.37;;;9.80;99.90;;;;;;4959407;28;20483;-69
2024/01/03 12:33:11;;;;;;;2.60;1.30;;;9.80;99.90;;;;;;4963811;28;20476;-69
2024/01/03 12:35:41;;;;;;;2.33;1.10;;;9.80;99.90;;;;;;4958266;28;20517;-70
2024/01/03 12:38:09;;;;;;;2.50;1.20;;;9.70;99.90;;;;;;4965020;28;21229;-69
2024/01/03 12:40:37;;;;;;;2.80;1.20;;;9.70;99.90;;;;;;4962581;28;20540;-69
2024/01/03 12:43:07;;;;;;;2.60;1.10;;;9.80;99.90;;;;;;4956600;28;20552;-69
2024/01/03 12:45:35;;;;;;;2.70;0.97;;;9.80;99.90;;;;;;4963148;28;20533;-69
2024/01/03 12:48:03;;;;;;;3.03;1.20;;;9.70;99.90;;;;;;4963200;28;20522;-69
2024/01/03 12:50:31;;;;;;;1.60;0.90;;;9.70;99.90;;;;;;4960240;28;21019;-69
2024/01/03 12:52:59;;;;;;;3.80;1.43;;;9.80;99.90;;;;;;4958801;28;20479;-69
2024/01/03 12:55:27;;;;;;;6.83;1.47;;;9.70;99.90;;;;;;4960561;28;20510;-69
2024/01/03 12:57:55;;;;;;;4.10;1.80;;;9.70;99.90;;;;;;4961121;28;21003;-68
2024/01/03 13:00:25;;;;;;;3.40;1.23;;;9.70;99.90;;;;;;4953752;28;21352;-69
2024/01/03 13:02:54;;;;;;;3.10;1.10;;;9.70;99.90;;;;;;4962324;28;20910;-69
2024/01/03 13:05:22;;;;;;;4.57;1.50;;;9.60;99.90;;;;;;4957031;28;20482;-69
2024/01/03 13:07:50;;;;;;;4.50;1.50;;;9.60;99.90;;;;;;4952218;28;20570;-69